createdAt,value
2023-05-22T00:01:17.384Z,3.40
2023-05-22T00:03:44.138Z,3.30
2023-05-22T00:06:12.208Z,3.38
2023-05-22T00:08:38.988Z,3.20
2023-05-22T00:11:05.957Z,3.67
2023-05-22T00:13:32.781Z,3.58
2023-05-22T00:15:59.558Z,3.27
2023-05-22T00:18:27.201Z,3.60
2023-05-22T00:20:54.405Z,3.72
2023-05-22T00:23:22.000Z,3.65
2023-05-22T00:25:51.176Z,3.53
2023-05-22T00:28:18.087Z,3.90
2023-05-22T00:30:44.999Z,3.35
2023-05-22T00:33:12.409Z,3.80
2023-05-22T00:35:39.219Z,3.90
2023-05-22T00:38:06.481Z,3.85
2023-05-22T00:40:33.319Z,3.67
2023-05-22T00:43:00.135Z,3.75
2023-05-22T00:45:26.961Z,4.28
2023-05-22T00:47:53.950Z,4.07
2023-05-22T00:50:23.446Z,3.70
2023-05-22T00:52:50.503Z,3.50
2023-05-22T00:55:17.955Z,4.20
2023-05-22T00:57:46.096Z,4.10
2023-05-22T01:00:18.066Z,4.20
2023-05-22T01:02:44.892Z,4.07
2023-05-22T01:05:13.463Z,3.80
2023-05-22T01:07:40.717Z,4.28
2023-05-22T01:10:08.218Z,3.80
2023-05-22T01:13:11.853Z,4.22
2023-05-22T01:15:52.553Z,4.18
2023-05-22T01:18:42.339Z,4.10
2023-05-22T01:21:14.927Z,3.95
2023-05-22T01:24:04.306Z,4.32
2023-05-22T01:27:05.690Z,4.05
2023-05-22T01:29:43.952Z,3.83
2023-05-22T01:32:13.268Z,3.73
2023-05-22T01:34:44.443Z,3.97
2023-05-22T01:37:12.476Z,3.83
2023-05-22T01:39:40.486Z,3.85
2023-05-22T01:42:08.176Z,3.83
2023-05-22T01:44:34.993Z,4.40
2023-05-22T01:47:07.051Z,4.35
2023-05-22T01:49:35.051Z,4.47
2023-05-22T01:52:15.615Z,4.53
2023-05-22T01:55:05.180Z,4.70
2023-05-22T01:57:42.396Z,4.70
2023-05-22T02:00:15.746Z,4.65
2023-05-22T02:02:51.404Z,4.57
2023-05-22T02:05:19.775Z,4.38
2023-05-22T02:07:47.895Z,4.50
2023-05-22T02:10:16.056Z,4.70
2023-05-22T02:12:43.093Z,4.40
2023-05-22T02:15:10.267Z,4.38
2023-05-22T02:17:40.424Z,4.03
2023-05-22T02:20:14.566Z,4.22
2023-05-22T02:22:43.491Z,4.60
2023-05-22T02:25:17.742Z,4.38
2023-05-22T02:27:46.381Z,4.75
2023-05-22T02:30:14.332Z,4.32
2023-05-22T02:32:42.110Z,5.43
2023-05-22T02:35:09.667Z,4.40
2023-05-22T02:37:36.843Z,4.75
2023-05-22T02:40:06.452Z,4.25
2023-05-22T02:42:33.533Z,4.97
2023-05-22T02:45:00.667Z,4.20
2023-05-22T02:47:27.517Z,4.43
2023-05-22T02:49:58.057Z,4.88
2023-05-22T02:52:25.174Z,4.90
2023-05-22T02:54:52.042Z,4.88
2023-05-22T02:57:21.140Z,5.22
2023-05-22T02:59:48.038Z,4.70
2023-05-22T03:02:17.757Z,4.75
2023-05-22T03:04:47.338Z,4.57
2023-05-22T03:07:14.159Z,4.45
2023-05-22T03:09:40.967Z,4.47
2023-05-22T03:12:08.267Z,4.70
2023-05-22T03:14:35.353Z,5.03
2023-05-22T03:17:08.071Z,4.05
2023-05-22T03:19:34.790Z,4.97
2023-05-22T03:22:01.580Z,4.88
2023-05-22T03:24:31.544Z,4.60
2023-05-22T03:27:01.276Z,4.70
2023-05-22T03:29:28.037Z,5.20
2023-05-22T03:31:55.133Z,4.78
2023-05-22T03:34:24.497Z,5.22
2023-05-22T03:36:51.328Z,5.80
2023-05-22T03:39:18.047Z,5.28
2023-05-22T03:41:44.773Z,5.10
2023-05-22T03:44:11.551Z,4.40
2023-05-22T03:46:38.348Z,4.82
2023-05-22T03:49:05.113Z,4.83
2023-05-22T03:51:31.900Z,5.05
2023-05-22T03:53:58.602Z,4.70
2023-05-22T03:56:25.816Z,5.38
2023-05-22T03:58:52.726Z,6.13
2023-05-22T04:01:19.461Z,5.00
2023-05-22T04:03:46.371Z,5.38
2023-05-22T04:06:13.872Z,5.20
2023-05-22T04:08:40.806Z,5.43
2023-05-22T04:11:08.430Z,5.50
2023-05-22T04:13:35.276Z,5.40
2023-05-22T04:16:02.198Z,4.82
2023-05-22T04:18:29.135Z,5.20
2023-05-22T04:20:56.023Z,5.45
2023-05-22T04:23:22.801Z,5.15
2023-05-22T04:25:49.929Z,5.67
2023-05-22T04:28:17.702Z,5.30
2023-05-22T04:30:44.857Z,4.85
2023-05-22T04:33:12.883Z,5.15
2023-05-22T04:35:41.138Z,6.22
2023-05-22T04:38:07.928Z,6.03
2023-05-22T04:40:34.696Z,5.35
2023-05-22T04:43:01.677Z,5.25
2023-05-22T04:45:29.072Z,5.35
2023-05-22T04:47:56.365Z,5.82
2023-05-22T04:50:24.215Z,5.30
2023-05-22T04:52:53.537Z,5.85
2023-05-22T04:55:22.723Z,6.47
2023-05-22T04:57:52.943Z,5.43
2023-05-22T05:00:20.040Z,5.38
2023-05-22T05:02:47.323Z,4.13
2023-05-22T05:05:14.264Z,4.55
2023-05-22T05:07:42.053Z,4.90
2023-05-22T05:10:11.097Z,5.20
2023-05-22T05:12:37.912Z,5.15
2023-05-22T05:15:05.216Z,4.50
2023-05-22T05:17:32.035Z,5.53
2023-05-22T05:19:58.877Z,4.57
2023-05-22T05:22:27.156Z,5.53
2023-05-22T05:24:57.688Z,5.50
2023-05-22T05:27:24.634Z,4.63
2023-05-22T05:29:51.431Z,4.93
2023-05-22T05:32:18.227Z,4.93
2023-05-22T05:34:48.012Z,5.10
2023-05-22T05:37:17.803Z,5.18
2023-05-22T05:39:44.567Z,5.63
2023-05-22T05:42:11.359Z,5.78
2023-05-22T05:44:40.180Z,6.32
2023-05-22T05:47:07.110Z,7.88
2023-05-22T05:49:35.901Z,5.50
2023-05-22T05:52:02.929Z,5.73
2023-05-22T05:54:29.763Z,5.05
2023-05-22T05:56:56.708Z,5.40
2023-05-22T05:59:24.467Z,5.18
2023-05-22T06:01:51.640Z,5.40
2023-05-22T06:04:18.414Z,5.40
2023-05-22T06:06:45.181Z,5.35
2023-05-22T06:09:12.185Z,5.25
2023-05-22T06:11:38.988Z,5.15
2023-05-22T06:14:10.088Z,5.30
2023-05-22T06:16:36.918Z,5.27
2023-05-22T06:19:04.907Z,5.60
2023-05-22T06:21:31.946Z,5.88
2023-05-22T06:24:00.672Z,5.00
2023-05-22T06:26:27.983Z,4.95
2023-05-22T06:28:54.860Z,5.00
2023-05-22T06:31:23.024Z,4.75
2023-05-22T06:33:50.374Z,4.55
2023-05-22T06:36:17.625Z,6.53
2023-05-22T06:38:46.192Z,5.40
2023-05-22T06:41:15.985Z,4.70
2023-05-22T06:43:45.720Z,4.75
2023-05-22T06:46:16.913Z,4.45
2023-05-22T06:48:43.718Z,4.47
2023-05-22T06:51:12.809Z,5.22
2023-05-22T06:53:39.651Z,5.60
2023-05-22T06:56:06.633Z,4.43
2023-05-22T06:58:33.463Z,4.95
2023-05-22T07:01:02.815Z,5.07
2023-05-22T07:03:29.703Z,5.50
2023-05-22T07:05:59.728Z,4.97
2023-05-22T07:08:29.730Z,4.95
2023-05-22T07:10:57.363Z,4.90
2023-05-22T07:13:25.051Z,4.15
2023-05-22T07:15:51.854Z,4.25
2023-05-22T07:18:19.257Z,3.80
2023-05-22T07:20:46.274Z,3.70
2023-05-22T07:23:13.161Z,4.40
2023-05-22T07:25:39.976Z,4.35
2023-05-22T07:28:09.260Z,4.80
2023-05-22T07:30:38.696Z,5.00
2023-05-22T07:33:06.364Z,4.75
2023-05-22T07:35:33.448Z,5.40
2023-05-22T07:38:00.294Z,4.40
2023-05-22T07:40:29.636Z,4.70
2023-05-22T07:42:56.442Z,6.10
2023-05-22T07:45:23.274Z,4.38
2023-05-22T07:47:50.363Z,4.90
2023-05-22T07:50:17.334Z,5.05
2023-05-22T07:52:44.711Z,4.80
2023-05-22T07:55:14.568Z,4.90
2023-05-22T07:57:41.738Z,4.90
2023-05-22T08:00:13.827Z,4.40
2023-05-22T08:02:41.782Z,4.30
2023-05-22T08:05:09.802Z,4.18
2023-05-22T08:07:39.041Z,4.80
2023-05-22T08:10:18.333Z,4.70
2023-05-22T08:12:45.840Z,4.90
2023-05-22T08:15:12.738Z,4.63
2023-05-22T08:17:39.642Z,4.75
2023-05-22T08:20:07.686Z,4.53
2023-05-22T08:22:34.848Z,5.40
2023-05-22T08:25:03.475Z,5.35
2023-05-22T08:27:30.206Z,4.57
2023-05-22T08:29:58.778Z,5.00
2023-05-22T08:32:25.679Z,5.03
2023-05-22T08:34:53.615Z,5.03
2023-05-22T08:37:21.052Z,4.70
2023-05-22T08:39:50.682Z,4.43
2023-05-22T08:42:17.568Z,4.40
2023-05-22T08:44:44.629Z,4.30
2023-05-22T08:47:14.120Z,4.68
2023-05-22T08:49:41.143Z,4.38
2023-05-22T08:52:10.965Z,4.88
2023-05-22T08:54:41.915Z,5.43
2023-05-22T08:57:08.935Z,5.00
2023-05-22T08:59:39.157Z,8.68
2023-05-22T09:02:07.264Z,6.43
2023-05-22T09:04:41.061Z,4.22
2023-05-22T09:07:10.906Z,4.93
2023-05-22T09:09:41.590Z,5.13
2023-05-22T09:12:10.121Z,5.03
2023-05-22T09:14:44.358Z,4.78
2023-05-22T09:17:18.748Z,5.28
2023-05-22T09:19:46.209Z,4.80
2023-05-22T09:22:14.188Z,4.10
2023-05-22T09:24:42.520Z,5.28
2023-05-22T09:27:11.381Z,5.50
2023-05-22T09:29:51.632Z,4.15
2023-05-22T09:32:19.394Z,4.90
2023-05-22T09:34:47.030Z,3.77
2023-05-22T09:37:16.824Z,4.15
2023-05-22T09:39:51.614Z,4.28
2023-05-22T09:42:18.455Z,4.40
2023-05-22T09:44:49.505Z,4.70
2023-05-22T09:47:19.156Z,4.37
2023-05-22T09:49:46.284Z,4.32
2023-05-22T09:52:13.124Z,4.43
2023-05-22T09:54:55.896Z,4.10
2023-05-22T09:57:26.697Z,4.00
2023-05-22T09:59:58.533Z,3.97
2023-05-22T10:02:27.165Z,3.90
2023-05-22T10:04:54.918Z,3.78
2023-05-22T10:07:32.847Z,4.20
2023-05-22T10:10:13.250Z,4.05
2023-05-22T10:12:48.440Z,4.10
2023-05-22T10:15:17.229Z,3.47
2023-05-22T10:17:47.226Z,3.80
2023-05-22T10:20:16.435Z,3.90
2023-05-22T10:22:43.599Z,3.60
2023-05-22T10:25:11.363Z,3.30
2023-05-22T10:27:39.365Z,3.85
2023-05-22T10:30:34.103Z,3.53
2023-05-22T10:33:12.404Z,3.15
2023-05-22T10:35:46.426Z,3.00
2023-05-22T10:38:40.079Z,3.40
2023-05-22T10:41:08.314Z,3.13
2023-05-22T10:43:41.431Z,3.67
2023-05-22T10:46:09.860Z,3.45
2023-05-22T10:48:41.035Z,3.60
2023-05-22T10:51:08.962Z,3.13
2023-05-22T10:53:36.307Z,3.20
2023-05-22T10:56:17.020Z,3.42
2023-05-22T10:58:57.827Z,3.30
2023-05-22T11:01:27.894Z,2.83
2023-05-22T11:03:57.466Z,2.93
2023-05-22T11:06:38.882Z,2.92
2023-05-22T11:09:20.442Z,3.45
2023-05-22T11:11:48.465Z,3.25
2023-05-22T11:14:20.564Z,3.00
2023-05-22T11:16:47.423Z,2.80
2023-05-22T11:21:50.747Z,3.38
2023-05-22T11:24:18.408Z,3.40
2023-05-22T11:27:01.948Z,2.72
2023-05-22T11:29:29.520Z,3.23
2023-05-22T11:31:58.163Z,9.60
2023-05-22T11:34:26.238Z,7.00
2023-05-22T11:36:57.477Z,5.95
2023-05-22T11:39:24.230Z,9.07
2023-05-22T11:41:50.985Z,5.57
2023-05-22T11:44:18.315Z,6.70
2023-05-22T11:46:45.716Z,6.63
2023-05-22T11:49:13.341Z,6.47
2023-05-22T11:51:44.136Z,6.55
2023-05-22T11:54:11.218Z,5.67
2023-05-22T11:56:37.981Z,5.60
2023-05-22T11:59:04.820Z,3.75
2023-05-22T12:01:34.476Z,3.20
2023-05-22T12:04:04.764Z,3.75
2023-05-22T12:06:33.573Z,3.80
2023-05-22T12:09:03.791Z,2.97
2023-05-22T12:11:37.054Z,4.00
2023-05-22T12:14:09.257Z,2.97
2023-05-22T12:16:36.844Z,3.28
2023-05-22T12:19:13.496Z,3.00
2023-05-22T12:21:43.927Z,2.90
2023-05-22T12:24:10.987Z,3.08
2023-05-22T12:26:37.916Z,2.92
2023-05-22T12:29:04.843Z,2.50
2023-05-22T12:31:38.987Z,2.97
2023-05-22T12:34:08.131Z,2.75
2023-05-22T12:36:44.334Z,2.40
2023-05-22T12:39:16.328Z,3.50
2023-05-22T12:41:46.405Z,3.13
2023-05-22T12:44:15.665Z,2.80
2023-05-22T12:46:45.039Z,3.03
2023-05-22T12:49:11.904Z,2.75
2023-05-22T12:51:38.792Z,3.00
2023-05-22T12:54:05.597Z,3.05
2023-05-22T12:56:32.544Z,2.40
2023-05-22T12:59:01.427Z,2.92
2023-05-22T13:01:28.348Z,2.70
2023-05-22T13:03:55.252Z,2.83
2023-05-22T13:06:22.093Z,2.65
2023-05-22T13:08:48.830Z,2.63
2023-05-22T13:11:15.930Z,2.80
2023-05-22T13:13:43.817Z,3.17
2023-05-22T13:16:13.628Z,2.58
2023-05-22T13:18:40.423Z,2.85
2023-05-22T13:21:09.898Z,2.60
2023-05-22T13:23:36.810Z,2.50
2023-05-22T13:26:03.669Z,2.92
2023-05-22T13:28:30.496Z,2.50
2023-05-22T13:30:57.328Z,2.63
2023-05-22T13:33:24.736Z,2.63
2023-05-22T13:35:51.940Z,2.60
2023-05-22T13:38:18.764Z,2.90
2023-05-22T13:40:48.153Z,2.60
2023-05-22T13:43:15.475Z,2.53
2023-05-22T13:45:42.555Z,2.70
2023-05-22T13:48:09.721Z,2.75
2023-05-22T13:50:36.644Z,2.80
2023-05-22T13:53:03.493Z,2.70
2023-05-22T13:55:30.224Z,2.60
2023-05-22T13:57:56.990Z,2.80
2023-05-22T14:00:23.877Z,2.70
2023-05-22T14:02:50.739Z,3.03
2023-05-22T14:05:17.553Z,2.95
2023-05-22T14:07:44.340Z,3.22
2023-05-22T14:10:11.454Z,3.50
2023-05-22T14:12:38.261Z,3.00
2023-05-22T14:15:05.674Z,3.10
2023-05-22T14:17:32.460Z,3.08
2023-05-22T14:19:59.970Z,2.50
2023-05-22T14:22:26.840Z,2.53
2023-05-22T14:24:53.652Z,3.03
2023-05-22T14:27:20.440Z,2.97
2023-05-22T14:29:49.850Z,2.85
2023-05-22T14:32:16.604Z,3.05
2023-05-22T14:34:43.307Z,2.50
2023-05-22T14:37:10.057Z,3.15
2023-05-22T14:39:39.361Z,2.88
2023-05-22T14:42:07.715Z,3.45
2023-05-22T14:44:36.825Z,2.83
2023-05-22T14:47:03.724Z,2.93
2023-05-22T14:49:32.649Z,2.53
2023-05-22T14:52:01.904Z,2.88
2023-05-22T14:54:28.800Z,2.88
2023-05-22T14:56:55.714Z,3.03
2023-05-22T14:59:22.462Z,2.90
2023-05-22T15:01:50.586Z,3.00
2023-05-22T15:04:20.282Z,3.00
2023-05-22T15:06:47.112Z,2.80
2023-05-22T15:09:13.966Z,3.13
2023-05-22T15:11:45.572Z,2.90
2023-05-22T15:14:12.636Z,3.00
2023-05-22T15:16:39.466Z,2.90
2023-05-22T15:19:06.914Z,3.25
2023-05-22T15:21:34.069Z,3.22
2023-05-22T15:24:01.041Z,3.03
2023-05-22T15:26:27.823Z,2.38
2023-05-22T15:28:54.567Z,3.15
2023-05-22T15:31:21.415Z,3.00
2023-05-22T15:33:48.159Z,2.78
2023-05-22T15:36:15.975Z,3.00
2023-05-22T15:38:45.400Z,2.78
2023-05-22T15:41:12.142Z,3.38
2023-05-22T15:43:38.938Z,2.85
2023-05-22T15:46:06.018Z,2.90
2023-05-22T15:48:32.907Z,3.30
2023-05-22T15:50:59.771Z,3.03
2023-05-22T15:53:26.691Z,2.75
2023-05-22T15:55:53.549Z,3.15
2023-05-22T15:58:20.400Z,2.80
2023-05-22T16:00:52.045Z,3.07
2023-05-22T16:03:20.248Z,2.95
2023-05-22T16:05:47.196Z,3.15
2023-05-22T16:08:15.147Z,3.35
2023-05-22T16:10:44.510Z,3.33
2023-05-22T16:13:14.668Z,2.97
2023-05-22T16:15:43.576Z,3.70
2023-05-22T16:18:12.196Z,3.42
2023-05-22T16:20:39.186Z,3.60
2023-05-22T16:23:06.041Z,3.35
2023-05-22T16:25:32.827Z,3.37
2023-05-22T16:27:59.605Z,3.10
2023-05-22T16:30:26.464Z,3.22
2023-05-22T16:32:53.292Z,2.83
2023-05-22T16:35:22.092Z,3.45
2023-05-22T16:37:48.926Z,3.53
2023-05-22T16:40:15.901Z,2.95
2023-05-22T16:42:42.950Z,3.63
2023-05-22T16:45:09.934Z,3.40
2023-05-22T16:47:41.855Z,3.10
2023-05-22T16:50:09.375Z,5.20
2023-05-22T16:52:36.750Z,3.03
2023-05-22T16:55:03.962Z,3.33
2023-05-22T16:57:30.751Z,2.70
2023-05-22T16:59:59.801Z,3.30
2023-05-22T17:02:26.727Z,2.90
2023-05-22T17:04:54.519Z,2.88
2023-05-22T17:07:23.638Z,3.25
2023-05-22T17:09:50.398Z,3.25
2023-05-22T17:12:17.136Z,3.03
2023-05-22T17:14:44.057Z,3.20
2023-05-22T17:17:10.907Z,2.72
2023-05-22T17:19:37.812Z,3.00
2023-05-22T17:22:04.854Z,2.92
2023-05-22T17:24:33.962Z,3.17
2023-05-22T17:27:00.983Z,5.30
2023-05-22T17:29:28.273Z,3.70
2023-05-22T17:31:55.124Z,4.85
2023-05-22T17:34:22.319Z,3.28
2023-05-22T17:36:51.566Z,3.28
2023-05-22T17:39:18.404Z,3.10
2023-05-22T17:41:45.195Z,3.00
2023-05-22T17:44:11.934Z,2.85
2023-05-22T17:46:40.130Z,5.35
2023-05-22T17:49:07.164Z,3.67
2023-05-22T17:51:33.972Z,3.07
2023-05-22T17:54:00.824Z,3.30
2023-05-22T17:56:30.734Z,3.92
2023-05-22T17:58:57.488Z,3.63
2023-05-22T18:01:24.610Z,3.33
2023-05-22T18:03:51.715Z,3.40
2023-05-22T18:06:18.621Z,3.90
2023-05-22T18:08:45.638Z,3.40
2023-05-22T18:11:12.455Z,3.22
2023-05-22T18:13:39.238Z,3.63
2023-05-22T18:16:06.378Z,3.97
2023-05-22T18:18:33.156Z,3.85
2023-05-22T18:21:00.102Z,4.13
2023-05-22T18:23:27.003Z,3.70
2023-05-22T18:25:54.004Z,3.85
2023-05-22T18:28:26.573Z,3.90
2023-05-22T18:30:53.927Z,4.45
2023-05-22T18:33:22.832Z,4.30
2023-05-22T18:35:49.624Z,4.28
2023-05-22T18:38:16.687Z,4.30
2023-05-22T18:40:43.638Z,4.67
2023-05-22T18:43:10.425Z,4.70
2023-05-22T18:45:37.314Z,4.03
2023-05-22T18:48:07.123Z,4.15
2023-05-22T18:50:33.988Z,4.28
2023-05-22T18:53:00.933Z,4.03
2023-05-22T18:55:27.696Z,4.13
2023-05-22T18:57:54.449Z,4.70
2023-05-22T19:00:21.359Z,4.47
2023-05-22T19:02:48.135Z,3.63
2023-05-22T19:05:15.319Z,3.73
2023-05-22T19:07:44.496Z,4.10
2023-05-22T19:10:11.442Z,4.32
2023-05-22T19:12:38.197Z,3.92
2023-05-22T19:15:06.967Z,4.30
2023-05-22T19:17:36.309Z,4.53
2023-05-22T19:20:06.486Z,4.18
2023-05-22T19:22:33.757Z,5.20
2023-05-22T19:25:02.005Z,4.78
2023-05-22T19:27:28.766Z,5.07
2023-05-22T19:29:56.800Z,3.83
2023-05-22T19:32:23.564Z,3.97
2023-05-22T19:34:52.459Z,4.43
2023-05-22T19:37:21.712Z,3.67
2023-05-22T19:39:48.497Z,4.20
2023-05-22T19:42:15.357Z,3.90
2023-05-22T19:44:42.132Z,4.15
2023-05-22T19:47:08.938Z,3.97
2023-05-22T19:49:37.196Z,3.58
2023-05-22T19:52:04.890Z,4.20
2023-05-22T19:54:31.690Z,4.50
2023-05-22T19:56:59.599Z,3.97
2023-05-22T19:59:27.131Z,4.20
2023-05-22T20:01:54.124Z,3.67
2023-05-22T20:04:21.595Z,3.92
2023-05-22T20:06:49.623Z,4.60
2023-05-22T20:09:16.858Z,4.72
2023-05-22T20:11:43.710Z,4.03
2023-05-22T20:14:12.837Z,4.70
2023-05-22T20:16:39.689Z,4.93
2023-05-22T20:19:06.527Z,5.13
2023-05-22T20:21:33.527Z,4.72
2023-05-22T20:24:00.365Z,4.15
2023-05-22T20:26:27.117Z,4.20
2023-05-22T20:28:53.933Z,4.32
2023-05-22T20:31:20.691Z,4.57
2023-05-22T20:33:52.935Z,4.55
2023-05-22T20:36:19.862Z,4.78
2023-05-22T20:38:46.642Z,5.00
2023-05-22T20:41:13.462Z,4.53
2023-05-22T20:43:44.100Z,4.30
2023-05-22T20:46:11.042Z,4.30
2023-05-22T20:48:40.600Z,3.95
2023-05-22T20:51:08.254Z,4.25
2023-05-22T20:53:35.065Z,4.03
2023-05-22T20:56:01.970Z,3.90
2023-05-22T20:58:28.916Z,4.78
2023-05-22T21:00:56.073Z,4.43
2023-05-22T21:03:25.788Z,4.82
2023-05-22T21:05:53.012Z,4.32
2023-05-22T21:08:21.030Z,5.70
2023-05-22T21:10:47.753Z,5.75
2023-05-22T21:13:14.690Z,6.03
2023-05-22T21:15:41.422Z,6.65
2023-05-22T21:18:08.248Z,5.18
2023-05-22T21:20:35.217Z,6.60
2023-05-22T21:23:04.288Z,6.53
2023-05-22T21:25:31.129Z,7.55
2023-05-22T21:27:57.943Z,6.60
2023-05-22T21:30:24.762Z,7.60
2023-05-22T21:32:51.610Z,7.70
2023-05-22T21:35:18.452Z,7.63
2023-05-22T21:37:45.250Z,7.45
2023-05-22T21:40:17.427Z,7.60
2023-05-22T21:42:46.320Z,8.57
2023-05-22T21:45:14.156Z,7.67
2023-05-22T21:47:41.276Z,7.85
2023-05-22T21:50:08.396Z,7.85
2023-05-22T21:52:35.292Z,7.43
2023-05-22T21:55:02.650Z,7.93
2023-05-22T21:57:29.663Z,7.03
2023-05-22T21:59:56.391Z,7.28
2023-05-22T22:02:23.298Z,7.00
2023-05-22T22:04:50.118Z,6.88
2023-05-22T22:07:16.904Z,7.15
2023-05-22T22:09:43.689Z,6.80
2023-05-22T22:12:12.664Z,6.57
2023-05-22T22:14:39.416Z,6.35
2023-05-22T22:17:07.891Z,8.38
2023-05-22T22:19:37.937Z,7.20
2023-05-22T22:22:08.073Z,6.63
2023-05-22T22:24:34.964Z,6.43
2023-05-22T22:27:02.410Z,6.82
2023-05-22T22:29:29.180Z,6.57
2023-05-22T22:31:55.974Z,6.38
2023-05-22T22:34:22.796Z,6.10
2023-05-22T22:36:49.548Z,6.43
2023-05-22T22:39:16.384Z,5.95
2023-05-22T22:41:43.560Z,5.30
2023-05-22T22:44:10.707Z,6.28
2023-05-22T22:46:37.709Z,5.93
2023-05-22T22:49:07.608Z,6.70
2023-05-22T22:51:34.601Z,6.25
2023-05-22T22:54:01.445Z,6.53
2023-05-22T22:56:31.056Z,5.80
2023-05-22T22:58:57.885Z,5.13
2023-05-22T23:01:24.985Z,5.43
2023-05-22T23:03:52.025Z,5.47
2023-05-22T23:06:19.537Z,5.90
2023-05-22T23:08:46.383Z,6.82
2023-05-22T23:11:13.239Z,6.40
2023-05-22T23:13:43.743Z,7.03
2023-05-22T23:16:10.649Z,6.13
2023-05-22T23:18:37.703Z,6.53
2023-05-22T23:21:04.489Z,6.95
2023-05-22T23:23:31.243Z,6.33
2023-05-22T23:25:59.078Z,6.43
2023-05-22T23:28:28.164Z,6.00
2023-05-22T23:30:54.875Z,6.70
2023-05-22T23:33:21.775Z,6.45
2023-05-22T23:35:48.529Z,6.23
2023-05-22T23:38:15.486Z,6.57
2023-05-22T23:40:42.329Z,6.30
2023-05-22T23:43:09.022Z,6.97
2023-05-22T23:45:36.234Z,7.13
2023-05-22T23:48:03.067Z,6.37
2023-05-22T23:50:29.844Z,6.93
2023-05-22T23:52:56.751Z,7.10
2023-05-22T23:55:23.569Z,7.03
2023-05-22T23:57:50.350Z,7.70
